Golden Shanghai — 9HA2862 — position and weather

sailwx.info

Track history (hours):
 
Tides and Currents Weather Stations Pressure Air Temp Water Temp Dewpoint Dewpoint Depression Visibility Wind Speed Wind Dir Waves Ship Positions

Golden Shanghai

Last reported at 2016-Sep-28 03:33 UTC. Time now 2016-Sep-28 08:41 UTC.
Position N 35°21' E 119°32'.

Length 292 m; draft 18.4 m.

Type: Cargo ship. MMSI: 256456000.

Date/timePositionNaut miles runAvg speedWind from/ knotsBaromVisibWave heightAir tempDewpointWater temp
2016-Sep-28 03:33N 35°21' E 119°32'0 0.0
2016-Sep-28 02:33N 35°21' E 119°32'0 0.0
2016-Sep-28 01:33N 35°21' E 119°32'0 0.0
2016-Sep-27 14:33N 35°21' E 119°32'0 0.0
2016-Sep-27 13:27N 35°21' E 119°32'0 0.0
2016-Sep-27 00:33N 35°21' E 119°32'0 0.0
2016-Sep-26 19:26N 35°21' E 119°32'1 0.1
2016-Sep-26 15:32N 35°21' E 119°33'0 0.0
2016-Sep-26 13:14N 35°21' E 119°33'0 0.0
2016-Sep-26 11:32N 35°21' E 119°33'0 0.0
2016-Sep-26 02:32N 35°21' E 119°33'0 0.0
2016-Sep-25 04:27N 35°21' E 119°33'0 0.0
2016-Sep-25 00:15N 35°21' E 119°33'0 0.0
2016-Sep-24 22:33N 35°21' E 119°33'0 0.0
2016-Sep-24 21:33N 35°21' E 119°33'0 0.0
2016-Sep-24 19:27N 35°21' E 119°33'0 0.0
2016-Sep-24 18:33N 35°21' E 119°33'0 0.0
2016-Sep-24 17:27N 35°21' E 119°33'0 0.5
2016-Sep-24 16:33N 35°21' E 119°33'14 0.6
2016-Sep-23 16:29N 35°17' E 119°48'0 0.0
2016-Sep-23 15:29N 35°17' E 119°48'0 0.0
2016-Sep-23 13:29N 35°17' E 119°48'0 0.1
2016-Sep-23 09:29N 35°17' E 119°49'0 0.0
2016-Sep-23 06:22N 35°17' E 119°49'5 2.8
2016-Sep-23 04:32N 35°15' E 119°55'  
Track history (hours):
 
Tides and Currents Weather Stations Pressure Air Temp Water Temp Dewpoint Dewpoint Depression Visibility Wind Speed Wind Dir Waves Ship Positions

Golden Shanghai

Last reported at 2016-Sep-28 03:33 UTC. Time now 2016-Sep-28 08:41 UTC.
Position N 35°21' E 119°32'.

Length 292 m; draft 18.4 m.

Type: Cargo ship. MMSI: 256456000.

Date/timePositionNaut miles runAvg speedWind from/ knotsBaromVisibWave heightAir tempDewpointWater temp
2016-Sep-28 03:33N 35°21' E 119°32'0 0.0
2016-Sep-28 02:33N 35°21' E 119°32'0 0.0
2016-Sep-28 01:33N 35°21' E 119°32'0 0.0
2016-Sep-27 14:33N 35°21' E 119°32'0 0.0
2016-Sep-27 13:27N 35°21' E 119°32'0 0.0
2016-Sep-27 00:33N 35°21' E 119°32'0 0.0
2016-Sep-26 19:26N 35°21' E 119°32'1 0.1
2016-Sep-26 15:32N 35°21' E 119°33'0 0.0
2016-Sep-26 13:14N 35°21' E 119°33'0 0.0
2016-Sep-26 11:32N 35°21' E 119°33'0 0.0
2016-Sep-26 02:32N 35°21' E 119°33'0 0.0
2016-Sep-25 04:27N 35°21' E 119°33'0 0.0
2016-Sep-25 00:15N 35°21' E 119°33'0 0.0
2016-Sep-24 22:33N 35°21' E 119°33'0 0.0
2016-Sep-24 21:33N 35°21' E 119°33'0 0.0
2016-Sep-24 19:27N 35°21' E 119°33'0 0.0
2016-Sep-24 18:33N 35°21' E 119°33'0 0.0
2016-Sep-24 17:27N 35°21' E 119°33'0 0.5
2016-Sep-24 16:33N 35°21' E 119°33'14 0.6
2016-Sep-23 16:29N 35°17' E 119°48'0 0.0
2016-Sep-23 15:29N 35°17' E 119°48'0 0.0
2016-Sep-23 13:29N 35°17' E 119°48'0 0.1
2016-Sep-23 09:29N 35°17' E 119°49'0 0.0
2016-Sep-23 06:22N 35°17' E 119°49'5 2.8
2016-Sep-23 04:32N 35°15' E 119°55'  

Dump ship's entire track history